University Park, New Mexico
Current Conditions -  °F | °C
As of 3:15 PM on Saturday 25 Oct 2014 (Local Time) from KLRU Reporting Station
Clear Clear  
Wind Chill: 28°   Ceiling: Unl
Heat Index: 28°   Visibility: 10mi
Dew Point:   Wind: 9mph
Humidity: 21%   Direction: 270°W
Pressure: 30.2"   Gusts: 17mph
Location:  32.2825°N, 106.737°W
Report Text: KLRU 252115Z AUTO 27008G15KT 10SM CLR 28/04 A3020 RMK AO2 T02810038
Loading
Personal Weather Stations






























Interactive Weather Map
Tropical Storm Tracking
New forecast layout! Learn more

10-Day Weather Forecast

Advertisements
Track Severe Weather on mobile